sensor_id;sensor_type;location;lat;lon;timestamp;pressure;altitude;pressure_sealevel;temperature;humidity
21728;BME280;11026;50.560;17.852;2023-02-13T00:01:00;101624.09;;;2.46;100.00
21728;BME280;11026;50.560;17.852;2023-02-13T00:03:28;101622.47;;;2.53;100.00
21728;BME280;11026;50.560;17.852;2023-02-13T00:05:55;101621.78;;;2.60;100.00
21728;BME280;11026;50.560;17.852;2023-02-13T00:08:23;101622.66;;;2.60;100.00
21728;BME280;11026;50.560;17.852;2023-02-13T00:10:50;101624.28;;;2.55;100.00
21728;BME280;11026;50.560;17.852;2023-02-13T00:13:18;101630.28;;;2.51;100.00
21728;BME280;11026;50.560;17.852;2023-02-13T00:15:54;101628.47;;;2.47;100.00
21728;BME280;11026;50.560;17.852;2023-02-13T00:18:22;101627.53;;;2.45;100.00
21728;BME280;11026;50.560;17.852;2023-02-13T00:21:16;101625.66;;;2.38;100.00
21728;BME280;11026;50.560;17.852;2023-02-13T00:23:43;101625.53;;;2.33;100.00
21728;BME280;11026;50.560;17.852;2023-02-13T00:26:13;101620.75;;;2.53;100.00
21728;BME280;11026;50.560;17.852;2023-02-13T00:28:41;101619.31;;;2.67;100.00
21728;BME280;11026;50.560;17.852;2023-02-13T00:31:10;101618.63;;;2.76;100.00
21728;BME280;11026;50.560;17.852;2023-02-13T00:33:43;101625.03;;;2.90;100.00
21728;BME280;11026;50.560;17.852;2023-02-13T00:36:19;101620.75;;;2.94;100.00
21728;BME280;11026;50.560;17.852;2023-02-13T00:38:46;101616.50;;;3.01;100.00
21728;BME280;11026;50.560;17.852;2023-02-13T00:41:14;101615.53;;;2.94;100.00
21728;BME280;11026;50.560;17.852;2023-02-13T00:43:43;101615.59;;;2.97;100.00
21728;BME280;11026;50.560;17.852;2023-02-13T00:46:13;101615.47;;;2.91;100.00
21728;BME280;11026;50.560;17.852;2023-02-13T00:48:41;101614.53;;;2.89;100.00
21728;BME280;11026;50.560;17.852;2023-02-13T00:51:09;101612.00;;;2.92;100.00
21728;BME280;11026;50.560;17.852;2023-02-13T00:53:36;101615.63;;;2.99;100.00
21728;BME280;11026;50.560;17.852;2023-02-13T00:56:07;101619.03;;;2.94;100.00
21728;BME280;11026;50.560;17.852;2023-02-13T00:58:34;101618.16;;;2.94;100.00
21728;BME280;11026;50.560;17.852;2023-02-13T01:01:02;101617.28;;;2.93;100.00
21728;BME280;11026;50.560;17.852;2023-02-13T01:03:29;101613.88;;;2.98;100.00
21728;BME280;11026;50.560;17.852;2023-02-13T01:05:57;101616.50;;;2.99;100.00
21728;BME280;11026;50.560;17.852;2023-02-13T01:08:24;101611.41;;;3.05;100.00
21728;BME280;11026;50.560;17.852;2023-02-13T01:10:55;101607.69;;;2.94;100.00
21728;BME280;11026;50.560;17.852;2023-02-13T01:13:23;101609.28;;;2.86;100.00
21728;BME280;11026;50.560;17.852;2023-02-13T01:15:51;101610.72;;;2.73;100.00
21728;BME280;11026;50.560;17.852;2023-02-13T01:18:19;101606.34;;;2.72;100.00
21728;BME280;11026;50.560;17.852;2023-02-13T01:21:01;101610.78;;;2.75;100.00
21728;BME280;11026;50.560;17.852;2023-02-13T01:23:30;101611.91;;;2.87;100.00
21728;BME280;11026;50.560;17.852;2023-02-13T01:26:03;101601.50;;;2.90;100.00
21728;BME280;11026;50.560;17.852;2023-02-13T01:28:33;101603.00;;;2.78;100.00
21728;BME280;11026;50.560;17.852;2023-02-13T01:31:03;101599.69;;;2.86;100.00
21728;BME280;11026;50.560;17.852;2023-02-13T01:33:31;101598.84;;;2.89;100.00
21728;BME280;11026;50.560;17.852;2023-02-13T01:36:05;101597.47;;;3.06;100.00
21728;BME280;11026;50.560;17.852;2023-02-13T01:38:32;101594.81;;;3.05;100.00
21728;BME280;11026;50.560;17.852;2023-02-13T01:40:59;101593.19;;;3.10;100.00
21728;BME280;11026;50.560;17.852;2023-02-13T01:43:53;101592.34;;;3.12;100.00
21728;BME280;11026;50.560;17.852;2023-02-13T01:46:23;101588.75;;;3.07;100.00
21728;BME280;11026;50.560;17.852;2023-02-13T01:48:55;101590.53;;;3.08;100.00
21728;BME280;11026;50.560;17.852;2023-02-13T01:51:27;101587.00;;;3.06;100.00
21728;BME280;11026;50.560;17.852;2023-02-13T01:54:03;101581.72;;;3.03;100.00
21728;BME280;11026;50.560;17.852;2023-02-13T01:56:41;101587.00;;;3.06;100.00
21728;BME280;11026;50.560;17.852;2023-02-13T01:59:23;101576.56;;;3.08;100.00
21728;BME280;11026;50.560;17.852;2023-02-13T02:01:52;101576.56;;;3.08;100.00
21728;BME280;11026;50.560;17.852;2023-02-13T02:04:25;101575.59;;;3.03;100.00
21728;BME280;11026;50.560;17.852;2023-02-13T02:07:16;101574.81;;;3.07;100.00
21728;BME280;11026;50.560;17.852;2023-02-13T02:09:45;101571.41;;;3.12;100.00
21728;BME280;11026;50.560;17.852;2023-02-13T02:15:16;101574.78;;;3.05;100.00
21728;BME280;11026;50.560;17.852;2023-02-13T02:17:50;101572.25;;;3.10;100.00
21728;BME280;11026;50.560;17.852;2023-02-13T02:26:08;101560.16;;;3.15;100.00
21728;BME280;11026;50.560;17.852;2023-02-13T02:29:06;101563.78;;;3.23;100.00
21728;BME280;11026;50.560;17.852;2023-02-13T02:37:44;101554.97;;;3.18;100.00
21728;BME280;11026;50.560;17.852;2023-02-13T02:46:17;101561.94;;;3.17;100.00
21728;BME280;11026;50.560;17.852;2023-02-13T02:49:13;101570.69;;;3.19;100.00
21728;BME280;11026;50.560;17.852;2023-02-13T02:52:17;101574.16;;;3.17;100.00
21728;BME280;11026;50.560;17.852;2023-02-13T02:55:38;101568.78;;;3.11;100.00
21728;BME280;11026;50.560;17.852;2023-02-13T02:57:56;101568.63;;;3.03;100.00
21728;BME280;11026;50.560;17.852;2023-02-13T03:00:45;101569.66;;;3.10;100.00
21728;BME280;11026;50.560;17.852;2023-02-13T03:03:34;101566.91;;;3.04;100.00
21728;BME280;11026;50.560;17.852;2023-02-13T03:09:00;101566.38;;;3.22;100.00
21728;BME280;11026;50.560;17.852;2023-02-13T03:11:50;101577.44;;;3.08;100.00
21728;BME280;11026;50.560;17.852;2023-02-13T03:14:36;101577.38;;;3.04;100.00
21728;BME280;11026;50.560;17.852;2023-02-13T03:17:05;101575.47;;;2.96;100.00
21728;BME280;11026;50.560;17.852;2023-02-13T03:31:01;101572.97;;;3.01;100.00
21728;BME280;11026;50.560;17.852;2023-02-13T03:42:36;101579.91;;;3.01;100.00
21728;BME280;11026;50.560;17.852;2023-02-13T03:48:30;101574.81;;;3.07;100.00
21728;BME280;11026;50.560;17.852;2023-02-13T03:51:32;101578.38;;;3.12;100.00
21728;BME280;11026;50.560;17.852;2023-02-13T03:54:06;101580.03;;;3.05;100.00
21728;BME280;11026;50.560;17.852;2023-02-13T03:56:39;101571.25;;;3.03;100.00
21728;BME280;11026;50.560;17.852;2023-02-13T03:59:35;101577.44;;;3.07;100.00
21728;BME280;11026;50.560;17.852;2023-02-13T04:02:12;101579.16;;;3.06;100.00
21728;BME280;11026;50.560;17.852;2023-02-13T04:04:54;101578.44;;;3.13;100.00
21728;BME280;11026;50.560;17.852;2023-02-13T04:07:26;101576.06;;;3.26;100.00
21728;BME280;11026;50.560;17.852;2023-02-13T04:10:06;101569.56;;;3.05;100.00
21728;BME280;11026;50.560;17.852;2023-02-13T04:13:02;101567.75;;;3.03;100.00
21728;BME280;11026;50.560;17.852;2023-02-13T04:15:40;101568.63;;;3.03;100.00
21728;BME280;11026;50.560;17.852;2023-02-13T04:18:17;101564.06;;;2.93;100.00
21728;BME280;11026;50.560;17.852;2023-02-13T04:20:46;101560.63;;;2.94;100.00
21728;BME280;11026;50.560;17.852;2023-02-13T04:23:14;101563.72;;;2.75;100.00
21728;BME280;11026;50.560;17.852;2023-02-13T04:25:46;101571.66;;;2.79;100.00
21728;BME280;11026;50.560;17.852;2023-02-13T04:28:14;101560.38;;;2.82;100.00
21728;BME280;11026;50.560;17.852;2023-02-13T04:30:42;101570.09;;;2.89;100.00
21728;BME280;11026;50.560;17.852;2023-02-13T04:33:10;101573.63;;;2.89;100.00
21728;BME280;11026;50.560;17.852;2023-02-13T04:35:37;101565.78;;;2.91;100.00
21728;BME280;11026;50.560;17.852;2023-02-13T04:38:05;101562.56;;;3.04;100.00
21728;BME280;11026;50.560;17.852;2023-02-13T04:40:34;101577.44;;;3.08;100.00
21728;BME280;11026;50.560;17.852;2023-02-13T04:43:02;101566.75;;;2.94;100.00
21728;BME280;11026;50.560;17.852;2023-02-13T04:45:29;101564.41;;;3.10;100.00
21728;BME280;11026;50.560;17.852;2023-02-13T04:47:59;101567.84;;;3.06;100.00
21728;BME280;11026;50.560;17.852;2023-02-13T04:50:27;101559.94;;;3.04;100.00
21728;BME280;11026;50.560;17.852;2023-02-13T04:52:56;101565.97;;;3.00;100.00
21728;BME280;11026;50.560;17.852;2023-02-13T04:55:26;101564.88;;;2.89;100.00
21728;BME280;11026;50.560;17.852;2023-02-13T04:57:54;101563.97;;;2.87;100.00
21728;BME280;11026;50.560;17.852;2023-02-13T05:00:27;101565.38;;;3.16;100.00
21728;BME280;11026;50.560;17.852;2023-02-13T05:03:03;101572.13;;;3.04;100.00
21728;BME280;11026;50.560;17.852;2023-02-13T05:05:30;101570.84;;;3.27;100.00
21728;BME280;11026;50.560;17.852;2023-02-13T05:07:58;101558.63;;;3.28;100.00
21728;BME280;11026;50.560;17.852;2023-02-13T05:10:26;101563.84;;;3.26;100.00
21728;BME280;11026;50.560;17.852;2023-02-13T05:13:00;101568.06;;;3.19;100.00
21728;BME280;11026;50.560;17.852;2023-02-13T05:15:28;101564.50;;;3.14;100.00
21728;BME280;11026;50.560;17.852;2023-02-13T05:17:55;101564.50;;;3.14;100.00
21728;BME280;11026;50.560;17.852;2023-02-13T05:20:22;101558.47;;;3.18;100.00
21728;BME280;11026;50.560;17.852;2023-02-13T05:22:52;101559.50;;;3.27;100.00
21728;BME280;11026;50.560;17.852;2023-02-13T05:25:40;101554.28;;;3.28;100.00
21728;BME280;11026;50.560;17.852;2023-02-13T05:28:08;101559.50;;;3.28;100.00
21728;BME280;11026;50.560;17.852;2023-02-13T05:30:56;101561.31;;;3.31;100.00
21728;BME280;11026;50.560;17.852;2023-02-13T05:33:24;101561.22;;;3.26;100.00
21728;BME280;11026;50.560;17.852;2023-02-13T05:35:52;101567.97;;;3.13;100.00
21728;BME280;11026;50.560;17.852;2023-02-13T05:38:20;101558.53;;;3.22;100.00
21728;BME280;11026;50.560;17.852;2023-02-13T05:40:47;101561.38;;;3.34;100.00
21728;BME280;11026;50.560;17.852;2023-02-13T05:43:15;101569.56;;;3.05;100.00
21728;BME280;11026;50.560;17.852;2023-02-13T05:45:42;101563.63;;;3.14;100.00
21728;BME280;11026;50.560;17.852;2023-02-13T05:48:10;101569.88;;;3.24;100.00
21728;BME280;11026;50.560;17.852;2023-02-13T05:50:37;101573.00;;;3.04;100.00
21728;BME280;11026;50.560;17.852;2023-02-13T05:53:06;101579.91;;;3.01;100.00
21728;BME280;11026;50.560;17.852;2023-02-13T05:55:33;101576.66;;;3.12;100.00
21728;BME280;11026;50.560;17.852;2023-02-13T05:58:01;101577.59;;;3.16;100.00
21728;BME280;11026;50.560;17.852;2023-02-13T06:00:34;101581.84;;;3.09;100.00
21728;BME280;11026;50.560;17.852;2023-02-13T06:03:02;101578.63;;;3.24;100.00
21728;BME280;11026;50.560;17.852;2023-02-13T06:05:31;101577.81;;;3.27;100.00
21728;BME280;11026;50.560;17.852;2023-02-13T06:07:58;101576.34;;;3.41;100.00
21728;BME280;11026;50.560;17.852;2023-02-13T06:10:26;101590.03;;;3.28;100.00
21728;BME280;11026;50.560;17.852;2023-02-13T06:12:53;101586.69;;;3.36;100.00
21728;BME280;11026;50.560;17.852;2023-02-13T06:15:20;101589.41;;;3.41;100.00
21728;BME280;11026;50.560;17.852;2023-02-13T06:17:48;101596.50;;;3.48;100.00
21728;BME280;11026;50.560;17.852;2023-02-13T06:20:15;101593.72;;;3.40;100.00
21728;BME280;11026;50.560;17.852;2023-02-13T06:22:42;101591.00;;;3.33;100.00
21728;BME280;11026;50.560;17.852;2023-02-13T06:25:11;101593.50;;;3.27;100.00
21728;BME280;11026;50.560;17.852;2023-02-13T06:27:41;101591.84;;;3.32;100.00
21728;BME280;11026;50.560;17.852;2023-02-13T06:30:10;101592.97;;;3.46;100.00
21728;BME280;11026;50.560;17.852;2023-02-13T06:32:37;101589.50;;;3.47;100.00
21728;BME280;11026;50.560;17.852;2023-02-13T06:35:05;101592.19;;;3.52;100.00
21728;BME280;11026;50.560;17.852;2023-02-13T06:37:33;101589.56;;;3.50;100.00
21728;BME280;11026;50.560;17.852;2023-02-13T06:40:01;101597.06;;;3.32;100.00
21728;BME280;11026;50.560;17.852;2023-02-13T06:42:28;101598.94;;;3.39;100.00
21728;BME280;11026;50.560;17.852;2023-02-13T06:44:56;101594.72;;;3.45;100.00
21728;BME280;11026;50.560;17.852;2023-02-13T06:47:23;101593.94;;;3.51;100.00
21728;BME280;11026;50.560;17.852;2023-02-13T06:49:53;101591.38;;;3.54;100.00
21728;BME280;11026;50.560;17.852;2023-02-13T06:52:21;101599.44;;;3.65;100.00
21728;BME280;11026;50.560;17.852;2023-02-13T06:54:48;101596.81;;;3.65;100.00
21728;BME280;11026;50.560;17.852;2023-02-13T06:57:16;101592.41;;;3.64;100.00
21728;BME280;11026;50.560;17.852;2023-02-13T06:59:45;101588.91;;;3.63;100.00
21728;BME280;11026;50.560;17.852;2023-02-13T07:02:13;101593.31;;;3.64;100.00
21728;BME280;11026;50.560;17.852;2023-02-13T07:04:40;101592.53;;;3.72;100.00
21728;BME280;11026;50.560;17.852;2023-02-13T07:07:07;101593.47;;;3.74;100.00
21728;BME280;11026;50.560;17.852;2023-02-13T07:09:35;101588.97;;;3.66;100.00
21728;BME280;11026;50.560;17.852;2023-02-13T07:12:04;101591.31;;;3.51;100.00
21728;BME280;11026;50.560;17.852;2023-02-13T07:14:31;101586.13;;;3.53;100.00
21728;BME280;11026;50.560;17.852;2023-02-13T07:17:06;101591.31;;;3.51;100.00
21728;BME280;11026;50.560;17.852;2023-02-13T07:19:33;101587.91;;;3.55;100.00
21728;BME280;11026;50.560;17.852;2023-02-13T07:22:08;101585.47;;;3.64;100.00
21728;BME280;11026;50.560;17.852;2023-02-13T07:24:35;101597.63;;;3.64;100.00
21728;BME280;11026;50.560;17.852;2023-02-13T07:27:04;101589.75;;;3.61;100.00
21728;BME280;11026;50.560;17.852;2023-02-13T07:29:31;101586.09;;;3.51;100.00
21728;BME280;11026;50.560;17.852;2023-02-13T07:31:59;101585.28;;;3.54;100.00
21728;BME280;11026;50.560;17.852;2023-02-13T07:34:27;101589.78;;;3.64;100.00
21728;BME280;11026;50.560;17.852;2023-02-13T07:36:54;101585.34;;;3.60;100.00
21728;BME280;11026;50.560;17.852;2023-02-13T07:39:22;101590.56;;;3.58;100.00
21728;BME280;11026;50.560;17.852;2023-02-13T07:41:50;101585.41;;;3.61;100.00
21728;BME280;11026;50.560;17.852;2023-02-13T07:44:17;101581.97;;;3.65;100.00
21728;BME280;11026;50.560;17.852;2023-02-13T07:46:45;101588.16;;;3.69;100.00
21728;BME280;11026;50.560;17.852;2023-02-13T07:49:12;101567.28;;;3.74;100.00
21728;BME280;11026;50.560;17.852;2023-02-13T07:51:40;101564.66;;;3.74;100.00
21728;BME280;11026;50.560;17.852;2023-02-13T07:54:08;101569.84;;;3.72;100.00
21728;BME280;11026;50.560;17.852;2023-02-13T07:56:35;101565.75;;;3.88;100.00
21728;BME280;11026;50.560;17.852;2023-02-13T07:59:03;101566.84;;;4.01;100.00
21728;BME280;11026;50.560;17.852;2023-02-13T08:01:39;101563.44;;;4.08;100.00
21728;BME280;11026;50.560;17.852;2023-02-13T08:04:06;101571.47;;;4.18;100.00
21728;BME280;11026;50.560;17.852;2023-02-13T08:06:34;101568.78;;;4.15;100.00
21728;BME280;11026;50.560;17.852;2023-02-13T08:09:01;101561.97;;;4.27;100.00
21728;BME280;11026;50.560;17.852;2023-02-13T08:11:48;101569.78;;;4.24;100.00
21728;BME280;11026;50.560;17.852;2023-02-13T08:16:54;101580.25;;;4.24;100.00
21728;BME280;11026;50.560;17.852;2023-02-13T08:19:21;101568.03;;;4.23;100.00
21728;BME280;11026;50.560;17.852;2023-02-13T08:21:48;101568.88;;;4.22;100.00
21728;BME280;11026;50.560;17.852;2023-02-13T08:24:16;101573.31;;;4.26;100.00
21728;BME280;11026;50.560;17.852;2023-02-13T08:26:43;101563.81;;;4.34;100.00
21728;BME280;11026;50.560;17.852;2023-02-13T08:29:12;101569.16;;;4.40;100.00
21728;BME280;11026;50.560;17.852;2023-02-13T08:31:39;101568.25;;;4.38;100.00
21728;BME280;11026;50.560;17.852;2023-02-13T08:34:07;101574.31;;;4.34;100.00
21728;BME280;11026;50.560;17.852;2023-02-13T08:36:35;101570.78;;;4.32;100.00
21728;BME280;11026;50.560;17.852;2023-02-13T08:39:02;101566.66;;;4.49;100.00
21728;BME280;11026;50.560;17.852;2023-02-13T08:41:30;101565.63;;;4.36;100.00
21728;BME280;11026;50.560;17.852;2023-02-13T08:43:58;101570.25;;;4.57;100.00
21728;BME280;11026;50.560;17.852;2023-02-13T08:46:25;101577.25;;;4.58;100.00
21728;BME280;11026;50.560;17.852;2023-02-13T08:48:53;101566.53;;;4.40;100.00
21728;BME280;11026;50.560;17.852;2023-02-13T08:51:20;101573.63;;;4.49;100.00
21728;BME280;11026;50.560;17.852;2023-02-13T08:53:48;101571.06;;;4.53;100.00
21728;BME280;11026;50.560;17.852;2023-02-13T08:56:15;101574.56;;;4.55;100.00
21728;BME280;11026;50.560;17.852;2023-02-13T08:58:43;101576.38;;;4.56;100.00
21728;BME280;11026;50.560;17.852;2023-02-13T09:01:10;101570.31;;;4.60;100.00
21728;BME280;11026;50.560;17.852;2023-02-13T09:03:37;101571.97;;;4.55;100.00
21728;BME280;11026;50.560;17.852;2023-02-13T09:06:07;101571.06;;;4.55;100.00
21728;BME280;11026;50.560;17.852;2023-02-13T09:08:35;101565.00;;;4.57;100.00
21728;BME280;11026;50.560;17.852;2023-02-13T09:11:03;101569.41;;;4.60;100.00
21728;BME280;11026;50.560;17.852;2023-02-13T09:13:33;101566.84;;;4.64;100.00
21728;BME280;11026;50.560;17.852;2023-02-13T09:16:04;101561.56;;;4.61;100.00
21728;BME280;11026;50.560;17.852;2023-02-13T09:18:33;101561.75;;;4.77;100.00
21728;BME280;11026;50.560;17.852;2023-02-13T09:21:09;101567.06;;;4.83;100.00
21728;BME280;11026;50.560;17.852;2023-02-13T09:23:39;101572.41;;;4.90;100.00
21728;BME280;11026;50.560;17.852;2023-02-13T09:26:09;101575.03;;;4.90;100.00
21728;BME280;11026;50.560;17.852;2023-02-13T09:28:37;101572.53;;;5.00;100.00
21728;BME280;11026;50.560;17.852;2023-02-13T09:31:12;101572.41;;;4.89;100.00
21728;BME280;11026;50.560;17.852;2023-02-13T09:33:44;101577.69;;;4.92;100.00
21728;BME280;11026;50.560;17.852;2023-02-13T09:36:14;101578.56;;;4.94;100.00
21728;BME280;11026;50.560;17.852;2023-02-13T09:38:52;101573.44;;;5.03;100.00
21728;BME280;11026;50.560;17.852;2023-02-13T09:43:55;101582.22;;;5.07;100.00
21728;BME280;11026;50.560;17.852;2023-02-13T09:46:53;101580.53;;;5.13;100.00
21728;BME280;11026;50.560;17.852;2023-02-13T09:49:22;101581.44;;;5.17;100.00
21728;BME280;11026;50.560;17.852;2023-02-13T09:51:55;101584.94;;;5.16;100.00
21728;BME280;11026;50.560;17.852;2023-02-13T09:54:23;101578.91;;;5.25;100.00
21728;BME280;11026;50.560;17.852;2023-02-13T09:57:07;101582.44;;;5.27;100.00
21728;BME280;11026;50.560;17.852;2023-02-13T09:59:59;101579.00;;;5.32;100.00
21728;BME280;11026;50.560;17.852;2023-02-13T10:09:00;101584.13;;;5.22;100.00
21728;BME280;11026;50.560;17.852;2023-02-13T10:14:20;101588.34;;;5.07;100.00
21728;BME280;11026;50.560;17.852;2023-02-13T10:17:13;101578.91;;;5.25;100.00
21728;BME280;11026;50.560;17.852;2023-02-13T10:20:23;101581.63;;;5.31;100.00
21728;BME280;11026;50.560;17.852;2023-02-13T10:23:20;101568.44;;;5.28;100.00
21728;BME280;11026;50.560;17.852;2023-02-13T10:25:55;101575.41;;;5.26;100.00
21728;BME280;11026;50.560;17.852;2023-02-13T10:28:57;101573.66;;;5.23;100.00
21728;BME280;11026;50.560;17.852;2023-02-13T10:31:47;101575.44;;;5.27;100.00
21728;BME280;11026;50.560;17.852;2023-02-13T10:34:21;101571.03;;;5.25;100.00
21728;BME280;11026;50.560;17.852;2023-02-13T10:36:52;101570.06;;;5.16;100.00
21728;BME280;11026;50.560;17.852;2023-02-13T10:39:28;101558.78;;;5.24;100.00
21728;BME280;11026;50.560;17.852;2023-02-13T10:42:14;101556.16;;;5.24;100.00
21728;BME280;11026;50.560;17.852;2023-02-13T10:45:12;101550.84;;;5.16;100.00
21728;BME280;11026;50.560;17.852;2023-02-13T10:48:17;101545.63;;;5.19;100.00
21728;BME280;11026;50.560;17.852;2023-02-13T10:51:03;101554.41;;;5.24;100.00
21728;BME280;11026;50.560;17.852;2023-02-13T10:56:40;101547.41;;;5.25;100.00
21728;BME280;11026;50.560;17.852;2023-02-13T11:00:03;101552.75;;;5.32;100.00
21728;BME280;11026;50.560;17.852;2023-02-13T11:02:24;101558.00;;;5.34;100.00
21728;BME280;11026;50.560;17.852;2023-02-13T11:05:17;101556.31;;;5.42;100.00
21728;BME280;11026;50.560;17.852;2023-02-13T11:07:46;101554.59;;;5.42;100.00
21728;BME280;11026;50.560;17.852;2023-02-13T11:10:24;101545.13;;;5.58;100.00
21728;BME280;11026;50.560;17.852;2023-02-13T11:12:54;101538.97;;;5.56;100.00
21728;BME280;11026;50.560;17.852;2023-02-13T11:15:30;101542.53;;;5.63;100.00
21728;BME280;11026;50.560;17.852;2023-02-13T11:18:13;101541.72;;;5.72;100.00
21728;BME280;11026;50.560;17.852;2023-02-13T11:20:44;101539.16;;;5.81;100.00
21728;BME280;11026;50.560;17.852;2023-02-13T11:25:58;101540.97;;;5.89;100.00
21728;BME280;11026;50.560;17.852;2023-02-13T11:28:30;101524.44;;;5.98;100.00
21728;BME280;11026;50.560;17.852;2023-02-13T11:31:18;101529.66;;;5.95;100.00
21728;BME280;11026;50.560;17.852;2023-02-13T11:33:47;101527.94;;;6.00;100.00
21728;BME280;11026;50.560;17.852;2023-02-13T11:39:06;101522.72;;;6.06;100.00
21728;BME280;11026;50.560;17.852;2023-02-13T11:41:45;101531.47;;;6.05;100.00
21728;BME280;11026;50.560;17.852;2023-02-13T11:44:26;101523.59;;;6.08;100.00
21728;BME280;11026;50.560;17.852;2023-02-13T11:46:56;101526.22;;;6.05;100.00
21728;BME280;11026;50.560;17.852;2023-02-13T11:49:25;101526.25;;;6.11;100.00
21728;BME280;11026;50.560;17.852;2023-02-13T11:51:59;101527.13;;;6.13;100.00
21728;BME280;11026;50.560;17.852;2023-02-13T11:54:42;101518.25;;;5.93;100.00
21728;BME280;11026;50.560;17.852;2023-02-13T11:57:29;101517.41;;;5.94;100.00
21728;BME280;11026;50.560;17.852;2023-02-13T11:59:59;101525.28;;;5.94;100.00
21728;BME280;11026;50.560;17.852;2023-02-13T12:02:29;101527.88;;;5.93;100.00
21728;BME280;11026;50.560;17.852;2023-02-13T12:07:44;101528.03;;;6.15;100.00
21728;BME280;11026;50.560;17.852;2023-02-13T12:15:32;101514.94;;;6.23;100.00
21728;BME280;11026;50.560;17.852;2023-02-13T12:31:54;101514.25;;;6.69;100.00
21728;BME280;11026;50.560;17.852;2023-02-13T12:40:32;101529.94;;;6.44;100.00
21728;BME280;11026;50.560;17.852;2023-02-13T12:46:05;101526.41;;;6.39;100.00
21728;BME280;11026;50.560;17.852;2023-02-13T12:51:36;101524.59;;;6.29;100.00
21728;BME280;11026;50.560;17.852;2023-02-13T13:05:47;101514.03;;;6.16;100.00
21728;BME280;11026;50.560;17.852;2023-02-13T13:12:12;101505.19;;;6.02;100.00
21728;BME280;11026;50.560;17.852;2023-02-13T13:15:07;101515.69;;;6.05;100.00
21728;BME280;11026;50.560;17.852;2023-02-13T13:25:40;101519.03;;;5.86;100.00
21728;BME280;11026;50.560;17.852;2023-02-13T13:28:23;101522.53;;;5.85;100.00
21728;BME280;11026;50.560;17.852;2023-02-13T13:30:52;101524.25;;;5.78;100.00
21728;BME280;11026;50.560;17.852;2023-02-13T13:33:22;101533.06;;;5.83;100.00
21728;BME280;11026;50.560;17.852;2023-02-13T13:36:55;101536.59;;;5.87;100.00
21728;BME280;11026;50.560;17.852;2023-02-13T13:39:03;101533.94;;;5.88;100.00
21728;BME280;11026;50.560;17.852;2023-02-13T13:50:26;101522.44;;;5.70;100.00
21728;BME280;11026;50.560;17.852;2023-02-13T13:53:14;101535.59;;;5.71;100.00
21728;BME280;11026;50.560;17.852;2023-02-13T13:58:44;101531.13;;;5.59;100.00
21728;BME280;11026;50.560;17.852;2023-02-13T14:01:19;101532.84;;;5.57;100.00
21728;BME280;11026;50.560;17.852;2023-02-13T14:03:49;101534.56;;;5.52;100.00
21728;BME280;11026;50.560;17.852;2023-02-13T14:06:20;101538.78;;;5.38;100.00
21728;BME280;11026;50.560;17.852;2023-02-13T14:11:41;101529.19;;;5.40;100.00
21728;BME280;11026;50.560;17.852;2023-02-13T14:17:00;101528.31;;;5.41;100.00
21728;BME280;11026;50.560;17.852;2023-02-13T14:19:35;101525.72;;;5.44;100.00
21728;BME280;11026;50.560;17.852;2023-02-13T14:22:35;101522.22;;;5.43;100.00
21728;BME280;11026;50.560;17.852;2023-02-13T14:25:28;101525.72;;;5.44;100.00
21728;BME280;11026;50.560;17.852;2023-02-13T14:28:04;101516.94;;;5.39;100.00
21728;BME280;11026;50.560;17.852;2023-02-13T14:30:35;101520.47;;;5.44;100.00
21728;BME280;11026;50.560;17.852;2023-02-13T14:33:26;101525.59;;;5.27;100.00
21728;BME280;11026;50.560;17.852;2023-02-13T14:36:20;101522.84;;;5.16;100.00
21728;BME280;11026;50.560;17.852;2023-02-13T14:38:59;101516.81;;;5.24;100.00
21728;BME280;11026;50.560;17.852;2023-02-13T14:44:18;101515.00;;;5.21;100.00
21728;BME280;11026;50.560;17.852;2023-02-13T14:46:47;101510.59;;;5.18;100.00
21728;BME280;11026;50.560;17.852;2023-02-13T14:49:28;101494.66;;;4.99;100.00
21728;BME280;11026;50.560;17.852;2023-02-13T14:52:00;101495.38;;;4.81;100.00
21728;BME280;11026;50.560;17.852;2023-02-13T14:54:46;101489.03;;;4.60;100.00
21728;BME280;11026;50.560;17.852;2023-02-13T14:57:21;101481.13;;;4.57;100.00
21728;BME280;11026;50.560;17.852;2023-02-13T14:59:54;101488.06;;;4.52;100.00
21728;BME280;11026;50.560;17.852;2023-02-13T15:02:28;101486.28;;;4.51;100.00
21728;BME280;11026;50.560;17.852;2023-02-13T15:05:15;101485.44;;;4.52;100.00
21728;BME280;11026;50.560;17.852;2023-02-13T15:07:51;101482.88;;;4.58;100.00
21728;BME280;11026;50.560;17.852;2023-02-13T15:10:35;101480.25;;;4.57;100.00
21728;BME280;11026;50.560;17.852;2023-02-13T15:13:31;101477.50;;;4.46;100.00
21728;BME280;11026;50.560;17.852;2023-02-13T15:16:09;101474.00;;;4.44;100.00
21728;BME280;11026;50.560;17.852;2023-02-13T15:18:44;101461.72;;;4.43;100.00
21728;BME280;11026;50.560;17.852;2023-02-13T15:21:21;101451.19;;;4.37;100.00
21728;BME280;11026;50.560;17.852;2023-02-13T15:23:54;101458.22;;;4.41;100.00
21728;BME280;11026;50.560;17.852;2023-02-13T15:26:28;101457.41;;;4.45;100.00
21728;BME280;11026;50.560;17.852;2023-02-13T15:29:17;101458.28;;;4.44;100.00
21728;BME280;11026;50.560;17.852;2023-02-13T15:32:26;101460.03;;;4.45;100.00
21728;BME280;11026;50.560;17.852;2023-02-13T15:35:30;101466.97;;;4.43;100.00
21728;BME280;11026;50.560;17.852;2023-02-13T15:40:56;101472.09;;;4.34;100.00
21728;BME280;11026;50.560;17.852;2023-02-13T15:43:37;101471.28;;;4.36;100.00
21728;BME280;11026;50.560;17.852;2023-02-13T15:46:28;101471.13;;;4.24;100.00